createdAt,value
2018-12-03T00:01:21.869Z,4.90
2018-12-03T00:03:52.410Z,5.60
2018-12-03T00:06:22.962Z,6.00
2018-12-03T00:08:53.990Z,7.87
2018-12-03T00:11:24.889Z,8.00
2018-12-03T00:13:55.501Z,7.80
2018-12-03T00:16:25.713Z,8.53
2018-12-03T00:18:55.997Z,9.30
2018-12-03T00:21:26.311Z,10.67
2018-12-03T00:23:56.812Z,10.30
2018-12-03T00:26:28.815Z,11.60
2018-12-03T00:28:59.170Z,11.90
2018-12-03T00:31:29.578Z,13.90
2018-12-03T00:34:00.083Z,15.50
2018-12-03T00:36:30.451Z,15.03
2018-12-03T00:39:00.822Z,15.37
2018-12-03T00:41:31.142Z,15.17
2018-12-03T00:44:02.008Z,15.73
2018-12-03T00:46:33.739Z,16.70
2018-12-03T00:49:04.387Z,15.67
2018-12-03T00:51:35.760Z,15.70
2018-12-03T00:54:06.676Z,14.80
2018-12-03T00:56:38.440Z,15.60
2018-12-03T00:59:09.606Z,15.87
2018-12-03T01:01:40.420Z,15.47
2018-12-03T01:04:12.255Z,14.67
2018-12-03T01:06:43.035Z,15.07
2018-12-03T01:09:13.612Z,14.93
2018-12-03T01:11:44.594Z,17.20
2018-12-03T01:14:14.729Z,18.10
2018-12-03T01:16:44.740Z,18.70
2018-12-03T01:19:15.434Z,17.20
2018-12-03T01:21:46.329Z,17.27
2018-12-03T01:24:16.561Z,16.43
2018-12-03T01:26:46.779Z,17.13
2018-12-03T01:29:17.402Z,16.07
2018-12-03T01:31:47.662Z,16.27
2018-12-03T01:34:18.886Z,17.03
2018-12-03T01:36:49.511Z,15.50
2018-12-03T01:39:19.590Z,15.23
2018-12-03T01:41:49.653Z,15.03
2018-12-03T01:44:19.726Z,15.33
2018-12-03T01:46:49.715Z,14.03
2018-12-03T01:49:20.481Z,14.30
2018-12-03T01:51:51.412Z,14.13
2018-12-03T01:54:23.264Z,14.37
2018-12-03T01:56:54.711Z,13.63
2018-12-03T01:59:24.782Z,14.80
2018-12-03T02:01:55.051Z,13.13
2018-12-03T02:04:25.937Z,13.03
2018-12-03T02:06:56.174Z,12.83
2018-12-03T02:09:26.870Z,12.40
2018-12-03T02:11:56.854Z,12.10
2018-12-03T02:14:26.906Z,13.57
2018-12-03T02:16:59.322Z,12.80
2018-12-03T02:19:29.428Z,12.53
2018-12-03T02:22:00.027Z,13.07
2018-12-03T02:24:30.107Z,12.80
2018-12-03T02:27:00.107Z,11.37
2018-12-03T02:29:30.946Z,11.57
2018-12-03T02:32:01.152Z,11.83
2018-12-03T02:34:32.602Z,13.20
2018-12-03T02:37:02.646Z,11.47
2018-12-03T02:39:33.573Z,12.00
2018-12-03T02:42:03.631Z,11.53
2018-12-03T02:44:34.175Z,12.20
2018-12-03T02:47:05.345Z,12.20
2018-12-03T02:49:36.952Z,10.90
2018-12-03T02:52:07.648Z,10.50
2018-12-03T02:54:39.144Z,9.70
2018-12-03T02:57:09.834Z,9.20
2018-12-03T02:59:39.803Z,9.87
2018-12-03T03:02:09.870Z,8.30
2018-12-03T03:04:40.670Z,8.10
2018-12-03T03:07:11.473Z,8.60
2018-12-03T03:09:41.655Z,8.10
2018-12-03T03:12:11.938Z,8.67
2018-12-03T03:14:42.677Z,8.00
2018-12-03T03:17:13.735Z,8.37
2018-12-03T03:19:43.888Z,7.57
2018-12-03T03:22:14.958Z,7.50
2018-12-03T03:24:45.744Z,8.30
2018-12-03T03:27:16.354Z,9.60
2018-12-03T03:29:46.454Z,8.50
2018-12-03T03:32:17.732Z,9.50
2018-12-03T03:34:48.796Z,9.80
2018-12-03T03:37:19.617Z,9.37
2018-12-03T03:39:51.971Z,8.37
2018-12-03T03:42:23.543Z,10.00
2018-12-03T03:44:53.677Z,8.90
2018-12-03T03:47:23.778Z,10.13
2018-12-03T03:49:54.939Z,10.43
2018-12-03T03:52:26.132Z,11.20
2018-12-03T03:54:57.662Z,10.27
2018-12-03T03:57:27.890Z,11.30
2018-12-03T03:59:57.886Z,10.20
2018-12-03T04:02:29.455Z,10.63
2018-12-03T04:05:00.223Z,10.70
2018-12-03T04:07:30.524Z,10.87
2018-12-03T04:10:01.282Z,11.70
2018-12-03T04:12:32.866Z,11.20
2018-12-03T04:15:04.400Z,11.57
2018-12-03T04:17:35.434Z,11.73
2018-12-03T04:20:10.685Z,11.33
2018-12-03T04:22:41.984Z,9.90
2018-12-03T04:25:14.106Z,10.17
2018-12-03T04:27:46.159Z,9.17
2018-12-03T04:30:18.992Z,9.60
2018-12-03T04:32:50.051Z,9.93
2018-12-03T04:35:20.709Z,9.00
2018-12-03T04:37:51.439Z,9.33
2018-12-03T04:40:22.142Z,8.87
2018-12-03T04:42:52.816Z,9.40
2018-12-03T04:45:23.981Z,8.60
2018-12-03T04:47:56.078Z,8.13
2018-12-03T04:50:26.045Z,7.63
2018-12-03T04:52:56.559Z,7.57
2018-12-03T04:55:26.707Z,7.33
2018-12-03T04:57:56.824Z,7.50
2018-12-03T05:00:28.185Z,7.07
2018-12-03T05:03:00.173Z,6.40
2018-12-03T05:05:31.862Z,6.57
2018-12-03T05:08:02.217Z,6.40
2018-12-03T05:10:34.226Z,5.30
2018-12-03T05:13:06.891Z,5.70
2018-12-03T05:15:37.041Z,5.37
2018-12-03T05:18:07.804Z,5.50
2018-12-03T05:20:37.869Z,4.93
2018-12-03T05:23:08.726Z,4.70
2018-12-03T05:25:39.344Z,3.47
2018-12-03T05:28:11.541Z,3.20
2018-12-03T05:30:42.191Z,3.07
2018-12-03T05:33:12.394Z,2.90
2018-12-03T05:35:43.621Z,2.90
2018-12-03T05:38:13.802Z,2.70
2018-12-03T05:40:45.383Z,2.37
2018-12-03T05:43:17.298Z,2.37
2018-12-03T05:45:49.286Z,3.43
2018-12-03T05:48:20.902Z,2.50
2018-12-03T05:50:50.943Z,2.57
2018-12-03T05:53:21.026Z,2.77
2018-12-03T05:55:51.094Z,3.10
2018-12-03T05:58:21.159Z,3.27
2018-12-03T06:00:54.202Z,3.00
2018-12-03T06:03:26.037Z,3.30
2018-12-03T06:05:57.291Z,3.10
2018-12-03T06:08:28.053Z,4.07
2018-12-03T06:10:58.755Z,4.40
2018-12-03T06:13:28.955Z,3.90
2018-12-03T06:15:59.627Z,3.70
2018-12-03T06:18:30.715Z,3.57
2018-12-03T06:21:00.681Z,4.20
2018-12-03T06:23:31.471Z,3.80
2018-12-03T06:26:03.010Z,4.60
2018-12-03T06:28:34.513Z,4.77
2018-12-03T06:31:04.691Z,5.00
2018-12-03T06:33:35.425Z,4.70
2018-12-03T06:36:06.026Z,4.60
2018-12-03T06:38:36.165Z,4.83
2018-12-03T06:41:07.676Z,5.10
2018-12-03T06:43:38.122Z,4.53
2018-12-03T06:46:08.830Z,4.97
2018-12-03T06:48:39.931Z,3.77
2018-12-03T06:51:10.107Z,4.27
2018-12-03T06:53:40.309Z,4.90
2018-12-03T06:56:11.846Z,4.53
2018-12-03T06:58:42.603Z,5.20
2018-12-03T07:01:13.320Z,4.57
2018-12-03T07:03:43.338Z,3.77
2018-12-03T07:06:13.529Z,3.23
2018-12-03T07:08:45.039Z,3.40
2018-12-03T07:11:16.267Z,3.13
2018-12-03T07:13:47.277Z,2.60
2018-12-03T07:16:17.459Z,3.73
2018-12-03T07:18:48.956Z,4.43
2018-12-03T07:21:18.951Z,4.40
2018-12-03T07:23:49.024Z,4.63
2018-12-03T07:26:20.381Z,5.90
2018-12-03T07:28:51.455Z,5.00
2018-12-03T07:31:22.466Z,4.90
2018-12-03T07:33:53.954Z,4.90
2018-12-03T07:36:24.497Z,4.50
2018-12-03T07:38:55.606Z,5.30
2018-12-03T07:41:26.201Z,3.80
2018-12-03T07:43:56.326Z,4.90
2018-12-03T07:46:27.115Z,5.50
2018-12-03T07:48:57.219Z,5.53
2018-12-03T07:51:28.072Z,5.50
2018-12-03T07:53:59.098Z,5.63
2018-12-03T07:56:29.069Z,5.93
2018-12-03T07:58:59.658Z,5.77
2018-12-03T08:01:30.534Z,6.17
2018-12-03T08:04:02.016Z,5.03
2018-12-03T08:06:34.037Z,6.07
2018-12-03T08:09:07.141Z,5.13
2018-12-03T08:11:37.682Z,5.27
2018-12-03T08:14:08.512Z,4.30
2018-12-03T08:16:39.950Z,4.50
2018-12-03T08:19:09.997Z,3.67
2018-12-03T08:21:40.199Z,3.30
2018-12-03T08:24:14.055Z,3.20
2018-12-03T08:26:44.170Z,3.40
2018-12-03T08:29:15.380Z,2.97
2018-12-03T08:31:45.453Z,2.63
2018-12-03T08:34:17.435Z,2.50
2018-12-03T08:36:47.522Z,2.37
2018-12-03T08:39:19.592Z,2.50
2018-12-03T08:41:51.651Z,2.20
2018-12-03T08:44:21.715Z,2.80
2018-12-03T08:46:53.437Z,1.83
2018-12-03T08:49:23.428Z,1.77
2018-12-03T08:51:54.677Z,2.10
2018-12-03T08:54:26.110Z,2.70
2018-12-03T08:56:57.400Z,2.60
2018-12-03T08:59:33.910Z,2.30
2018-12-03T09:02:04.540Z,2.40
2018-12-03T09:04:36.170Z,2.40
2018-12-03T09:07:07.513Z,2.90
2018-12-03T09:09:38.256Z,2.73
2018-12-03T09:12:08.358Z,3.10
2018-12-03T09:14:38.948Z,2.80
2018-12-03T09:17:09.869Z,3.03
2018-12-03T09:19:40.898Z,2.97
2018-12-03T09:22:12.768Z,2.83
2018-12-03T09:24:43.682Z,2.67
2018-12-03T09:27:17.209Z,2.83
2018-12-03T09:29:48.572Z,2.97
2018-12-03T09:32:18.751Z,2.50
2018-12-03T09:34:49.628Z,2.30
2018-12-03T09:37:20.217Z,3.00
2018-12-03T09:39:50.972Z,2.30
2018-12-03T09:42:21.634Z,2.13
2018-12-03T09:44:51.633Z,2.43
2018-12-03T09:47:22.598Z,2.03
2018-12-03T09:49:53.310Z,2.90
2018-12-03T09:52:23.910Z,2.33
2018-12-03T09:54:55.191Z,2.83
2018-12-03T09:57:26.395Z,2.93
2018-12-03T09:59:57.707Z,3.20
2018-12-03T10:02:29.066Z,3.00
2018-12-03T10:05:00.778Z,3.07
2018-12-03T10:07:31.953Z,3.90
2018-12-03T10:10:02.738Z,2.60
2018-12-03T10:12:34.501Z,2.73
2018-12-03T10:15:04.710Z,3.37
2018-12-03T10:17:35.449Z,3.07
2018-12-03T10:20:06.679Z,2.90
2018-12-03T10:22:36.716Z,3.40
2018-12-03T10:25:13.083Z,3.40
2018-12-03T10:27:44.817Z,3.57
2018-12-03T10:30:23.469Z,3.23
2018-12-03T10:32:54.309Z,2.77
2018-12-03T10:35:24.602Z,3.33
2018-12-03T10:37:55.885Z,3.20
2018-12-03T10:40:26.996Z,3.13
2018-12-03T10:42:57.578Z,2.30
2018-12-03T10:45:29.085Z,2.57
2018-12-03T10:48:00.544Z,2.90
2018-12-03T10:50:31.294Z,2.83
2018-12-03T10:53:02.446Z,3.00
2018-12-03T10:55:33.238Z,3.03
2018-12-03T10:58:04.618Z,3.33
2018-12-03T11:00:40.601Z,3.70
2018-12-03T11:03:15.089Z,3.30
2018-12-03T11:05:50.822Z,3.20
2018-12-03T11:08:24.415Z,3.60
2018-12-03T11:10:56.271Z,2.67
2018-12-03T11:13:26.411Z,2.90
2018-12-03T11:15:57.821Z,2.83
2018-12-03T11:18:28.151Z,3.37
2018-12-03T11:21:04.226Z,3.27
2018-12-03T11:23:34.563Z,2.93
2018-12-03T11:26:05.579Z,3.23
2018-12-03T11:28:40.299Z,2.70
2018-12-03T11:31:27.702Z,3.00
2018-12-03T11:33:58.438Z,3.20
2018-12-03T11:37:16.839Z,3.53
2018-12-03T11:39:56.710Z,3.00
2018-12-03T11:42:31.063Z,3.33
2018-12-03T11:45:01.082Z,2.63
2018-12-03T11:47:31.301Z,2.43
2018-12-03T11:50:02.152Z,3.40
2018-12-03T11:52:34.868Z,3.53
2018-12-03T11:55:05.893Z,3.30
2018-12-03T11:57:36.737Z,2.63
2018-12-03T12:00:13.201Z,3.30
2018-12-03T12:02:43.380Z,3.20
2018-12-03T12:05:13.705Z,3.63
2018-12-03T12:07:44.316Z,3.20
2018-12-03T12:10:15.413Z,3.60
2018-12-03T12:12:46.236Z,3.63
2018-12-03T12:15:16.254Z,3.63
2018-12-03T12:17:47.502Z,3.27
2018-12-03T12:20:18.772Z,3.57
2018-12-03T12:22:51.242Z,3.80
2018-12-03T12:25:22.478Z,4.60
2018-12-03T12:27:56.158Z,3.30
2018-12-03T12:30:27.501Z,3.40
2018-12-03T12:32:58.172Z,3.40
2018-12-03T12:35:28.211Z,4.00
2018-12-03T12:37:58.405Z,4.03
2018-12-03T12:40:28.965Z,4.13
2018-12-03T12:42:59.790Z,4.20
2018-12-03T12:45:36.208Z,4.03
2018-12-03T12:48:06.653Z,5.83
2018-12-03T12:50:37.238Z,3.60
2018-12-03T12:53:07.868Z,4.57
2018-12-03T12:55:40.265Z,3.93
2018-12-03T12:58:10.253Z,3.50
2018-12-03T13:00:40.505Z,4.00
2018-12-03T13:03:11.333Z,4.10
2018-12-03T13:05:41.977Z,3.57
2018-12-03T13:08:12.217Z,3.90
2018-12-03T13:10:43.465Z,4.10
2018-12-03T13:13:13.458Z,4.43
2018-12-03T13:15:44.682Z,4.90
2018-12-03T13:18:14.784Z,5.00
2018-12-03T13:20:45.417Z,4.63
2018-12-03T13:23:15.409Z,4.50
2018-12-03T13:25:45.601Z,4.07
2018-12-03T13:28:15.621Z,3.10
2018-12-03T13:30:46.509Z,3.77
2018-12-03T13:33:16.694Z,4.30
2018-12-03T13:35:47.252Z,3.80
2018-12-03T13:38:17.739Z,3.00
2018-12-03T13:40:47.748Z,3.50
2018-12-03T13:43:18.438Z,3.60
2018-12-03T13:45:48.369Z,3.33
2018-12-03T13:48:18.373Z,2.90
2018-12-03T13:50:49.095Z,3.77
2018-12-03T13:53:20.160Z,3.13
2018-12-03T13:55:51.261Z,3.70
2018-12-03T13:58:21.330Z,4.20
2018-12-03T14:00:51.372Z,3.20
2018-12-03T14:03:29.188Z,6.13
2018-12-03T14:06:38.234Z,3.47
2018-12-03T14:09:52.363Z,3.90
2018-12-03T14:12:45.332Z,3.70
2018-12-03T14:16:47.827Z,3.03
2018-12-03T14:19:23.311Z,2.90
2018-12-03T14:22:06.813Z,4.20
2018-12-03T14:24:37.654Z,3.60
2018-12-03T14:27:08.739Z,3.03
2018-12-03T14:29:38.807Z,3.47
2018-12-03T14:32:09.748Z,2.97
2018-12-03T14:34:39.814Z,3.47
2018-12-03T14:37:10.649Z,3.00
2018-12-03T14:39:40.672Z,4.37
2018-12-03T14:42:11.550Z,3.30
2018-12-03T14:44:42.194Z,3.60
2018-12-03T14:47:12.990Z,3.20
2018-12-03T14:49:43.091Z,4.10
2018-12-03T14:52:14.667Z,3.00
2018-12-03T14:54:45.277Z,3.67
2018-12-03T14:57:15.357Z,3.20
2018-12-03T14:59:45.886Z,3.50
2018-12-03T15:02:16.574Z,3.57
2018-12-03T15:04:46.716Z,3.90
2018-12-03T15:07:18.121Z,3.63
2018-12-03T15:09:48.807Z,4.10
2018-12-03T15:12:18.891Z,3.73
2018-12-03T15:14:49.036Z,3.97
2018-12-03T15:17:19.638Z,5.43
2018-12-03T15:19:49.584Z,3.93
2018-12-03T15:22:21.241Z,5.13
2018-12-03T15:24:51.910Z,3.80
2018-12-03T15:27:23.407Z,4.70
2018-12-03T15:29:54.607Z,6.00
2018-12-03T15:32:25.222Z,4.83
2018-12-03T15:34:57.054Z,4.33
2018-12-03T15:37:27.539Z,4.80
2018-12-03T15:39:58.877Z,3.97
2018-12-03T15:42:29.660Z,5.30
2018-12-03T15:45:00.559Z,5.43
2018-12-03T15:47:31.171Z,5.37
2018-12-03T15:50:02.934Z,6.20
2018-12-03T15:52:33.887Z,6.00
2018-12-03T15:55:05.603Z,6.83
2018-12-03T15:57:35.660Z,6.23
2018-12-03T16:00:09.405Z,5.57
2018-12-03T16:02:40.005Z,6.93
2018-12-03T16:05:16.655Z,6.90
2018-12-03T16:07:46.727Z,7.87
2018-12-03T16:10:16.949Z,7.67
2018-12-03T16:12:48.359Z,7.73
2018-12-03T16:15:18.428Z,7.43
2018-12-03T16:17:49.676Z,6.93
2018-12-03T16:20:20.882Z,7.23
2018-12-03T16:22:52.218Z,8.23
2018-12-03T16:25:22.893Z,7.90
2018-12-03T16:27:53.342Z,7.60
2018-12-03T16:30:25.455Z,7.97
2018-12-03T16:32:56.976Z,7.97
2018-12-03T16:35:27.036Z,7.57
2018-12-03T16:37:57.089Z,7.00
2018-12-03T16:40:28.262Z,7.87
2018-12-03T16:42:59.142Z,7.47
2018-12-03T16:45:29.098Z,8.77
2018-12-03T16:47:59.730Z,7.83
2018-12-03T16:50:31.503Z,8.30
2018-12-03T16:53:01.950Z,8.00
2018-12-03T16:55:32.053Z,8.20
2018-12-03T16:58:02.698Z,8.20
2018-12-03T17:00:34.192Z,8.70
2018-12-03T17:03:05.148Z,11.07
2018-12-03T17:05:37.439Z,10.20
2018-12-03T17:08:07.515Z,11.23
2018-12-03T17:10:38.241Z,11.80
2018-12-03T17:13:08.470Z,10.23
2018-12-03T17:15:38.411Z,8.70
2018-12-03T17:18:09.259Z,9.20
2018-12-03T17:20:52.679Z,9.53
2018-12-03T17:24:11.868Z,8.70
2018-12-03T17:26:43.152Z,9.10
2018-12-03T17:29:13.101Z,8.90
2018-12-03T17:31:43.694Z,7.40
2018-12-03T17:34:15.234Z,8.40
2018-12-03T17:36:45.765Z,8.47
2018-12-03T17:39:16.527Z,8.87
2018-12-03T17:41:46.650Z,8.20
2018-12-03T17:44:18.699Z,7.43
2018-12-03T17:46:48.851Z,8.30
2018-12-03T17:49:18.841Z,6.80
2018-12-03T17:51:48.866Z,10.20
2018-12-03T17:54:19.066Z,7.47
2018-12-03T17:56:49.872Z,7.00
2018-12-03T17:59:20.069Z,6.53
2018-12-03T18:01:51.142Z,6.80
2018-12-03T18:04:22.348Z,6.87
2018-12-03T18:06:53.188Z,6.80
2018-12-03T18:09:23.923Z,7.77
2018-12-03T18:11:54.150Z,6.70
2018-12-03T18:14:26.118Z,6.53
2018-12-03T18:16:57.992Z,5.53
2018-12-03T18:19:28.114Z,6.20
2018-12-03T18:21:58.146Z,6.30
2018-12-03T18:24:28.821Z,5.53
2018-12-03T18:27:00.333Z,10.73
2018-12-03T18:29:30.913Z,6.27
2018-12-03T18:32:02.729Z,7.67
2018-12-03T18:34:32.758Z,7.30
2018-12-03T18:37:04.111Z,6.33
2018-12-03T18:39:35.325Z,4.97
2018-12-03T18:42:06.003Z,7.83
2018-12-03T18:44:36.834Z,5.40
2018-12-03T18:47:07.039Z,5.23
2018-12-03T18:49:41.423Z,5.63
2018-12-03T18:52:13.207Z,5.33
2018-12-03T18:54:43.962Z,5.10
2018-12-03T18:57:14.001Z,11.40
2018-12-03T18:59:44.680Z,10.10
2018-12-03T19:02:14.873Z,26.60
2018-12-03T19:04:45.670Z,12.00
2018-12-03T19:07:16.111Z,7.67
2018-12-03T19:09:47.845Z,6.10
2018-12-03T19:12:18.736Z,7.50
2018-12-03T19:17:50.098Z,7.80
2018-12-03T19:20:20.701Z,6.83
2018-12-03T19:22:51.453Z,6.37
2018-12-03T19:25:22.394Z,6.60
2018-12-03T19:28:12.559Z,7.90
2018-12-03T19:30:43.774Z,8.10
2018-12-03T19:33:14.886Z,5.77
2018-12-03T19:35:45.580Z,4.63
2018-12-03T19:38:17.325Z,5.23
2018-12-03T19:40:47.430Z,5.60
2018-12-03T19:43:18.077Z,4.67
2018-12-03T19:45:48.906Z,5.60
2018-12-03T19:48:19.035Z,5.00
2018-12-03T19:50:51.175Z,5.20
2018-12-03T19:53:21.501Z,4.77
2018-12-03T19:55:52.650Z,4.83
2018-12-03T19:58:31.489Z,5.07
2018-12-03T20:01:01.600Z,4.30
2018-12-03T20:03:31.727Z,6.00
2018-12-03T20:06:02.550Z,4.50
2018-12-03T20:08:33.603Z,5.60
2018-12-03T20:11:04.725Z,5.50
2018-12-03T20:13:34.853Z,6.60
2018-12-03T20:16:05.203Z,5.93
2018-12-03T20:18:37.351Z,6.40
2018-12-03T20:21:17.074Z,6.27
2018-12-03T20:23:54.899Z,6.00
2018-12-03T20:26:33.514Z,5.70
2018-12-03T20:29:27.578Z,6.47
2018-12-03T20:34:15.607Z,6.10
2018-12-03T20:37:37.987Z,6.43
2018-12-03T20:40:57.718Z,7.07
2018-12-03T20:43:30.584Z,6.57
2018-12-03T20:46:12.725Z,5.30
2018-12-03T20:48:58.765Z,4.97
2018-12-03T20:51:39.318Z,5.23
2018-12-03T20:54:10.309Z,5.73
2018-12-03T20:56:40.908Z,5.23
2018-12-03T20:59:11.055Z,5.70
2018-12-03T21:01:46.218Z,4.70
2018-12-03T21:04:21.021Z,4.00
2018-12-03T21:06:51.404Z,3.37
2018-12-03T21:09:22.042Z,3.10
2018-12-03T21:11:53.134Z,3.70
2018-12-03T21:14:23.267Z,3.33
2018-12-03T21:16:54.594Z,3.70
2018-12-03T21:19:25.663Z,3.30
2018-12-03T21:21:58.261Z,3.30
2018-12-03T21:24:28.997Z,3.47
2018-12-03T21:26:59.079Z,3.60
2018-12-03T21:29:29.124Z,3.60
2018-12-03T21:31:59.672Z,3.33
2018-12-03T21:34:30.820Z,4.07
2018-12-03T21:37:00.997Z,4.30
2018-12-03T21:39:32.330Z,4.50
2018-12-03T21:42:02.316Z,4.43
2018-12-03T21:44:32.498Z,4.70
2018-12-03T21:47:02.670Z,5.40
2018-12-03T21:49:32.732Z,5.33
2018-12-03T21:52:02.811Z,5.77
2018-12-03T21:54:34.241Z,5.53
2018-12-03T21:57:10.653Z,4.93
2018-12-03T21:59:38.581Z,5.57
2018-12-03T22:02:09.169Z,5.13
2018-12-03T22:04:39.293Z,6.00
2018-12-03T22:07:09.301Z,5.20
2018-12-03T22:09:40.127Z,5.20
2018-12-03T22:12:10.965Z,5.53
2018-12-03T22:14:41.667Z,5.20
2018-12-03T22:17:12.522Z,5.70
2018-12-03T22:19:43.253Z,6.93
2018-12-03T22:22:13.995Z,6.53
2018-12-03T22:24:45.297Z,7.40
2018-12-03T22:27:15.674Z,7.10
2018-12-03T22:29:46.388Z,7.77
2018-12-03T22:32:17.376Z,8.10
2018-12-03T22:34:49.566Z,8.43
2018-12-03T22:37:20.057Z,8.50
2018-12-03T22:39:50.602Z,8.53
2018-12-03T22:42:23.483Z,8.13
2018-12-03T22:44:54.353Z,7.83
2018-12-03T22:47:24.238Z,8.47
2018-12-03T22:49:55.441Z,8.37
2018-12-03T22:52:25.940Z,8.40
2018-12-03T22:54:56.797Z,8.20
2018-12-03T22:57:28.477Z,9.07
2018-12-03T22:59:59.435Z,9.60
2018-12-03T23:02:30.835Z,9.70
2018-12-03T23:05:00.835Z,8.77
2018-12-03T23:07:32.082Z,8.67
2018-12-03T23:10:02.192Z,8.40
2018-12-03T23:12:32.661Z,9.10
2018-12-03T23:15:04.014Z,8.90
2018-12-03T23:17:35.669Z,9.17
2018-12-03T23:20:07.842Z,7.83
2018-12-03T23:22:37.841Z,8.63
2018-12-03T23:25:08.886Z,8.37
2018-12-03T23:27:39.841Z,11.23
2018-12-03T23:30:10.283Z,8.30
2018-12-03T23:32:40.934Z,8.30
2018-12-03T23:35:11.038Z,10.20
2018-12-03T23:37:41.061Z,9.70
2018-12-03T23:40:12.207Z,7.50
2018-12-03T23:42:42.891Z,5.20
2018-12-03T23:45:12.839Z,3.03
2018-12-03T23:47:42.857Z,3.10
2018-12-03T23:50:14.124Z,2.60
2018-12-03T23:52:44.603Z,3.00
2018-12-03T23:55:15.996Z,2.93
2018-12-03T23:57:47.166Z,1.73
